Fernando Marti, Argentina
Current Conditions -  °F | °C
As of 12:00 AM on Monday 22 Dec 2014 (Local Time) from SAOC Reporting Station
Clear Clear  
Wind Chill: 72°   Ceiling: Unl
Heat Index: 72°   Visibility: 6mi
Dew Point: 41°   Wind: 7mph
Humidity: 33%   Direction: 270°W
Pressure: 30.03"   Gusts: NA
Location:  34.67°S, 63.37°W
Report Text: SAOC 220300Z 27006KT CAVOK 22/05 Q1017
Loading
Personal Weather Stations






























Interactive Weather Map New forecast layout! Learn more

10-Day Weather Forecast

Advertisements
Track Severe Weather on mobile